Terminal Aerodrome Forecast
Issued by NWS

Home | Current Version | Previous Version | Text Only | Print | Product List | Glossary On
Versions: 1 2 3 4 5 6 7 8 9 10 11 12 13 14 15 16 17 18 19 20 21 22 23 24 25
000
FTUS45 KTWC 281738
TAFOLS
TAF
KOLS 281738Z 2818/2918 34006KT P6SM SCT080 SCT250
     FM282000 22008KT P6SM VCTS SCT070CB BKN100
      TEMPO 2821/2901 VRB20G25KT 4SM TSRA SCT040 BKN060CB
     FM290100 14006KT P6SM VCSH SCT060 BKN080 BKN110
     FM290600 09004KT P6SM SCT080 SCT110 BKN200
     FM291000 VRB03KT P6SM SCT110 SCT200=

USA.gov is the U.S. government's official web portal to all federal, state and local government web resources and services.